sensor_id;sensor_type;location;lat;lon;timestamp;pressure;altitude;pressure_sealevel;temperature;humidity
45991;BME280;31721;41.740;-88.000;2023-05-02T00:01:59;97301.15;;;9.64;54.87
45991;BME280;31721;41.740;-88.000;2023-05-02T00:04:28;97299.68;;;9.88;53.85
45991;BME280;31721;41.740;-88.000;2023-05-02T00:06:56;97299.47;;;9.81;54.15
45991;BME280;31721;41.740;-88.000;2023-05-02T00:09:24;97300.73;;;9.62;53.59
45991;BME280;31721;41.740;-88.000;2023-05-02T00:11:53;97300.87;;;9.54;52.83
45991;BME280;31721;41.740;-88.000;2023-05-02T00:14:21;97304.70;;;9.70;53.24
45991;BME280;31721;41.740;-88.000;2023-05-02T00:16:49;97304.51;;;9.57;53.57
45991;BME280;31721;41.740;-88.000;2023-05-02T00:19:17;97309.47;;;9.63;53.80
45991;BME280;31721;41.740;-88.000;2023-05-02T00:21:47;97312.36;;;9.63;53.36
45991;BME280;31721;41.740;-88.000;2023-05-02T00:24:16;97318.78;;;9.42;53.45
45991;BME280;31721;41.740;-88.000;2023-05-02T00:26:44;97324.33;;;9.34;53.43
45991;BME280;31721;41.740;-88.000;2023-05-02T00:29:12;97321.71;;;9.53;52.62
45991;BME280;31721;41.740;-88.000;2023-05-02T00:31:40;97329.42;;;9.34;52.63
45991;BME280;31721;41.740;-88.000;2023-05-02T00:34:09;97324.74;;;9.42;51.93
45991;BME280;31721;41.740;-88.000;2023-05-02T00:36:37;97331.96;;;9.44;51.90
45991;BME280;31721;41.740;-88.000;2023-05-02T00:39:05;97332.99;;;9.27;51.74
45991;BME280;31721;41.740;-88.000;2023-05-02T00:41:33;97336.89;;;9.30;51.75
45991;BME280;31721;41.740;-88.000;2023-05-02T00:44:02;97332.95;;;9.31;49.17
45991;BME280;31721;41.740;-88.000;2023-05-02T00:46:29;97341.41;;;9.25;50.88
45991;BME280;31721;41.740;-88.000;2023-05-02T00:48:58;97348.57;;;9.17;50.55
45991;BME280;31721;41.740;-88.000;2023-05-02T00:51:27;97347.57;;;9.00;50.44
45991;BME280;31721;41.740;-88.000;2023-05-02T00:53:56;97350.74;;;9.05;50.61
45991;BME280;31721;41.740;-88.000;2023-05-02T00:56:25;97354.07;;;9.10;49.51
45991;BME280;31721;41.740;-88.000;2023-05-02T00:58:55;97356.76;;;9.19;49.94
45991;BME280;31721;41.740;-88.000;2023-05-02T01:01:32;97359.70;;;8.73;49.52
45991;BME280;31721;41.740;-88.000;2023-05-02T01:04:16;97365.51;;;9.08;49.53
45991;BME280;31721;41.740;-88.000;2023-05-02T01:06:58;97371.15;;;9.02;49.25
45991;BME280;31721;41.740;-88.000;2023-05-02T01:09:38;97371.82;;;9.09;49.31
45991;BME280;31721;41.740;-88.000;2023-05-02T01:12:17;97372.70;;;8.85;49.79
45991;BME280;31721;41.740;-88.000;2023-05-02T01:14:53;97376.72;;;8.97;49.58
45991;BME280;31721;41.740;-88.000;2023-05-02T01:17:26;97379.83;;;8.79;49.42
45991;BME280;31721;41.740;-88.000;2023-05-02T01:19:58;97382.23;;;8.74;49.69
45991;BME280;31721;41.740;-88.000;2023-05-02T01:22:29;97388.05;;;8.89;49.67
45991;BME280;31721;41.740;-88.000;2023-05-02T01:25:07;97409.41;;;8.92;48.57
45991;BME280;31721;41.740;-88.000;2023-05-02T01:27:55;97390.78;;;9.07;48.13
45991;BME280;31721;41.740;-88.000;2023-05-02T01:30:27;97394.05;;;9.04;48.95
45991;BME280;31721;41.740;-88.000;2023-05-02T01:32:56;97390.57;;;8.96;49.06
45991;BME280;31721;41.740;-88.000;2023-05-02T01:35:27;97391.72;;;8.76;48.87
45991;BME280;31721;41.740;-88.000;2023-05-02T01:37:58;97394.59;;;8.68;47.57
45991;BME280;31721;41.740;-88.000;2023-05-02T01:40:28;97397.84;;;8.96;48.52
45991;BME280;31721;41.740;-88.000;2023-05-02T01:42:58;97398.46;;;8.82;48.13
45991;BME280;31721;41.740;-88.000;2023-05-02T01:45:29;97402.65;;;8.93;48.42
45991;BME280;31721;41.740;-88.000;2023-05-02T01:48:00;97400.43;;;8.75;46.23
45991;BME280;31721;41.740;-88.000;2023-05-02T01:50:30;97401.29;;;8.71;48.09
45991;BME280;31721;41.740;-88.000;2023-05-02T01:53:00;97405.06;;;8.68;48.18
45991;BME280;31721;41.740;-88.000;2023-05-02T01:55:31;97402.80;;;8.54;47.87
45991;BME280;31721;41.740;-88.000;2023-05-02T01:58:04;97404.50;;;8.83;48.33
45991;BME280;31721;41.740;-88.000;2023-05-02T02:00:34;97404.61;;;8.87;48.39
45991;BME280;31721;41.740;-88.000;2023-05-02T02:03:06;97407.57;;;8.70;47.78
45991;BME280;31721;41.740;-88.000;2023-05-02T02:05:37;97409.75;;;8.72;48.08
45991;BME280;31721;41.740;-88.000;2023-05-02T02:08:06;97412.10;;;8.72;48.72
45991;BME280;31721;41.740;-88.000;2023-05-02T02:10:41;97415.78;;;8.60;48.22
45991;BME280;31721;41.740;-88.000;2023-05-02T02:13:22;97420.17;;;8.73;48.41
45991;BME280;31721;41.740;-88.000;2023-05-02T02:15:58;97420.51;;;8.64;48.25
45991;BME280;31721;41.740;-88.000;2023-05-02T02:18:31;97410.98;;;8.79;48.24
45991;BME280;31721;41.740;-88.000;2023-05-02T02:21:06;97419.18;;;8.76;48.11
45991;BME280;31721;41.740;-88.000;2023-05-02T02:23:37;97415.85;;;8.74;48.19
45991;BME280;31721;41.740;-88.000;2023-05-02T02:26:07;97416.36;;;8.55;47.68
45991;BME280;31721;41.740;-88.000;2023-05-02T02:28:36;97416.49;;;8.51;47.63
45991;BME280;31721;41.740;-88.000;2023-05-02T02:31:05;97420.62;;;8.37;47.68
45991;BME280;31721;41.740;-88.000;2023-05-02T02:33:32;97418.00;;;8.45;48.10
45991;BME280;31721;41.740;-88.000;2023-05-02T02:36:18;97417.33;;;8.65;48.14
45991;BME280;31721;41.740;-88.000;2023-05-02T02:38:53;97418.01;;;8.58;47.31
45991;BME280;31721;41.740;-88.000;2023-05-02T02:41:27;97418.18;;;8.53;47.30
45991;BME280;31721;41.740;-88.000;2023-05-02T02:44:03;97413.42;;;8.46;47.68
45991;BME280;31721;41.740;-88.000;2023-05-02T02:46:49;97418.46;;;8.22;46.28
45991;BME280;31721;41.740;-88.000;2023-05-02T02:49:26;97422.95;;;8.29;47.64
45991;BME280;31721;41.740;-88.000;2023-05-02T02:52:04;97423.38;;;8.57;47.72
45991;BME280;31721;41.740;-88.000;2023-05-02T02:54:40;97432.08;;;8.39;46.20
45991;BME280;31721;41.740;-88.000;2023-05-02T02:57:16;97425.67;;;8.41;46.89
45991;BME280;31721;41.740;-88.000;2023-05-02T02:59:53;97414.94;;;8.34;47.19
45991;BME280;31721;41.740;-88.000;2023-05-02T03:02:30;97428.96;;;8.43;47.60
45991;BME280;31721;41.740;-88.000;2023-05-02T03:05:00;97426.56;;;8.20;46.16
45991;BME280;31721;41.740;-88.000;2023-05-02T03:07:30;97424.11;;;8.31;47.13
45991;BME280;31721;41.740;-88.000;2023-05-02T03:10:01;97429.53;;;8.17;46.40
45991;BME280;31721;41.740;-88.000;2023-05-02T03:12:30;97423.47;;;8.14;46.80
45991;BME280;31721;41.740;-88.000;2023-05-02T03:15:04;97421.53;;;8.32;47.27
45991;BME280;31721;41.740;-88.000;2023-05-02T03:17:36;97421.05;;;8.51;47.27
45991;BME280;31721;41.740;-88.000;2023-05-02T03:20:06;97423.69;;;8.55;47.18
45991;BME280;31721;41.740;-88.000;2023-05-02T03:22:34;97415.50;;;8.54;47.44
45991;BME280;31721;41.740;-88.000;2023-05-02T03:25:02;97416.61;;;8.52;47.38
45991;BME280;31721;41.740;-88.000;2023-05-02T03:27:29;97416.59;;;8.41;47.06
45991;BME280;31721;41.740;-88.000;2023-05-02T03:29:58;97418.53;;;8.39;46.63
45991;BME280;31721;41.740;-88.000;2023-05-02T03:32:26;97419.02;;;8.51;47.03
45991;BME280;31721;41.740;-88.000;2023-05-02T03:34:54;97413.96;;;8.36;46.87
45991;BME280;31721;41.740;-88.000;2023-05-02T03:37:22;97412.01;;;8.35;46.92
45991;BME280;31721;41.740;-88.000;2023-05-02T03:39:50;97405.39;;;8.30;47.12
45991;BME280;31721;41.740;-88.000;2023-05-02T03:42:18;97400.54;;;8.50;46.93
45991;BME280;31721;41.740;-88.000;2023-05-02T03:44:46;97413.23;;;8.54;46.72
45991;BME280;31721;41.740;-88.000;2023-05-02T03:47:14;97405.46;;;8.16;46.52
45991;BME280;31721;41.740;-88.000;2023-05-02T03:49:42;97407.96;;;8.25;46.59
45991;BME280;31721;41.740;-88.000;2023-05-02T03:52:10;97407.86;;;8.12;46.41
45991;BME280;31721;41.740;-88.000;2023-05-02T03:54:39;97407.24;;;8.04;46.79
45991;BME280;31721;41.740;-88.000;2023-05-02T03:57:07;97409.01;;;8.07;45.49
45991;BME280;31721;41.740;-88.000;2023-05-02T03:59:35;97405.29;;;8.39;46.43
45991;BME280;31721;41.740;-88.000;2023-05-02T04:02:03;97407.82;;;8.08;46.24
45991;BME280;31721;41.740;-88.000;2023-05-02T04:04:32;97409.46;;;8.23;45.33
45991;BME280;31721;41.740;-88.000;2023-05-02T04:07:00;97410.82;;;8.24;46.75
45991;BME280;31721;41.740;-88.000;2023-05-02T04:09:28;97411.24;;;8.15;45.93
45991;BME280;31721;41.740;-88.000;2023-05-02T04:11:56;97411.25;;;8.32;46.55
45991;BME280;31721;41.740;-88.000;2023-05-02T04:14:24;97408.20;;;8.30;46.51
45991;BME280;31721;41.740;-88.000;2023-05-02T04:16:53;97414.12;;;8.20;46.61
45991;BME280;31721;41.740;-88.000;2023-05-02T04:19:21;97418.75;;;8.21;44.73
45991;BME280;31721;41.740;-88.000;2023-05-02T04:21:49;97417.41;;;8.05;45.90
45991;BME280;31721;41.740;-88.000;2023-05-02T04:24:17;97422.13;;;8.40;46.00
45991;BME280;31721;41.740;-88.000;2023-05-02T04:26:45;97418.46;;;8.03;46.31
45991;BME280;31721;41.740;-88.000;2023-05-02T04:29:13;97414.52;;;8.12;44.75
45991;BME280;31721;41.740;-88.000;2023-05-02T04:31:42;97422.49;;;8.23;46.29
45991;BME280;31721;41.740;-88.000;2023-05-02T04:34:10;97418.68;;;8.41;46.17
45991;BME280;31721;41.740;-88.000;2023-05-02T04:36:38;97420.71;;;8.18;45.87
45991;BME280;31721;41.740;-88.000;2023-05-02T04:39:06;97419.60;;;8.09;45.50
45991;BME280;31721;41.740;-88.000;2023-05-02T04:41:34;97423.32;;;7.99;45.66
45991;BME280;31721;41.740;-88.000;2023-05-02T04:44:03;97422.17;;;7.95;45.81
45991;BME280;31721;41.740;-88.000;2023-05-02T04:46:31;97425.78;;;8.00;45.63
45991;BME280;31721;41.740;-88.000;2023-05-02T04:48:58;97418.64;;;7.50;45.15
45991;BME280;31721;41.740;-88.000;2023-05-02T04:51:27;97422.28;;;7.78;45.69
45991;BME280;31721;41.740;-88.000;2023-05-02T04:53:55;97421.25;;;7.77;45.75
45991;BME280;31721;41.740;-88.000;2023-05-02T04:56:24;97420.36;;;7.78;45.70
45991;BME280;31721;41.740;-88.000;2023-05-02T04:58:52;97420.15;;;7.93;45.72
45991;BME280;31721;41.740;-88.000;2023-05-02T05:01:19;97426.94;;;7.56;45.46
45991;BME280;31721;41.740;-88.000;2023-05-02T05:03:48;97427.04;;;7.89;45.52
45991;BME280;31721;41.740;-88.000;2023-05-02T05:06:16;97427.93;;;7.75;45.49
45991;BME280;31721;41.740;-88.000;2023-05-02T05:08:44;97426.54;;;7.86;45.40
45991;BME280;31721;41.740;-88.000;2023-05-02T05:11:12;97421.06;;;7.81;45.02
45991;BME280;31721;41.740;-88.000;2023-05-02T05:13:40;97421.70;;;7.44;45.03
45991;BME280;31721;41.740;-88.000;2023-05-02T05:16:08;97425.55;;;7.65;45.34
45991;BME280;31721;41.740;-88.000;2023-05-02T05:18:36;97424.02;;;7.82;45.39
45991;BME280;31721;41.740;-88.000;2023-05-02T05:21:05;97424.60;;;7.94;45.59
45991;BME280;31721;41.740;-88.000;2023-05-02T05:23:33;97423.42;;;8.06;45.14
45991;BME280;31721;41.740;-88.000;2023-05-02T05:26:08;97423.80;;;8.11;45.25
45991;BME280;31721;41.740;-88.000;2023-05-02T05:28:37;97423.42;;;8.11;45.27
45991;BME280;31721;41.740;-88.000;2023-05-02T05:31:05;97426.63;;;8.15;45.64
45991;BME280;31721;41.740;-88.000;2023-05-02T05:33:32;97430.60;;;8.07;45.30
45991;BME280;31721;41.740;-88.000;2023-05-02T05:36:05;97430.45;;;8.02;45.26
45991;BME280;31721;41.740;-88.000;2023-05-02T05:38:34;97430.31;;;7.92;45.35
45991;BME280;31721;41.740;-88.000;2023-05-02T05:41:01;97429.15;;;8.03;45.27
45991;BME280;31721;41.740;-88.000;2023-05-02T05:43:30;97431.94;;;8.07;45.40
45991;BME280;31721;41.740;-88.000;2023-05-02T05:45:58;97429.40;;;8.23;45.22
45991;BME280;31721;41.740;-88.000;2023-05-02T05:48:26;97428.26;;;8.08;45.29
45991;BME280;31721;41.740;-88.000;2023-05-02T05:50:53;97429.40;;;8.04;45.04
45991;BME280;31721;41.740;-88.000;2023-05-02T05:53:21;97434.30;;;8.03;44.82
45991;BME280;31721;41.740;-88.000;2023-05-02T05:55:49;97430.06;;;7.69;45.10
45991;BME280;31721;41.740;-88.000;2023-05-02T05:58:17;97429.44;;;7.90;45.37
45991;BME280;31721;41.740;-88.000;2023-05-02T06:00:44;97432.23;;;8.00;44.89
45991;BME280;31721;41.740;-88.000;2023-05-02T06:03:12;97430.25;;;8.08;45.23
45991;BME280;31721;41.740;-88.000;2023-05-02T06:05:40;97432.87;;;7.98;44.68
45991;BME280;31721;41.740;-88.000;2023-05-02T06:08:08;97433.11;;;7.89;44.96
45991;BME280;31721;41.740;-88.000;2023-05-02T06:10:36;97425.35;;;7.95;44.89
45991;BME280;31721;41.740;-88.000;2023-05-02T06:13:04;97428.34;;;7.75;45.23
45991;BME280;31721;41.740;-88.000;2023-05-02T06:15:33;97425.72;;;7.93;44.58
45991;BME280;31721;41.740;-88.000;2023-05-02T06:18:01;97420.83;;;7.76;45.21
45991;BME280;31721;41.740;-88.000;2023-05-02T06:20:29;97426.08;;;7.77;45.04
45991;BME280;31721;41.740;-88.000;2023-05-02T06:22:57;97418.46;;;7.59;45.31
45991;BME280;31721;41.740;-88.000;2023-05-02T06:25:25;97426.72;;;7.84;45.21
45991;BME280;31721;41.740;-88.000;2023-05-02T06:27:52;97415.63;;;7.63;45.50
45991;BME280;31721;41.740;-88.000;2023-05-02T06:30:21;97421.25;;;7.51;45.35
45991;BME280;31721;41.740;-88.000;2023-05-02T06:32:49;97424.52;;;7.58;45.46
45991;BME280;31721;41.740;-88.000;2023-05-02T06:35:17;97415.73;;;7.49;45.54
45991;BME280;31721;41.740;-88.000;2023-05-02T06:37:45;97423.23;;;7.38;45.47
45991;BME280;31721;41.740;-88.000;2023-05-02T06:40:13;97421.77;;;7.56;45.29
45991;BME280;31721;41.740;-88.000;2023-05-02T06:42:40;97421.93;;;7.54;45.33
45991;BME280;31721;41.740;-88.000;2023-05-02T06:45:08;97424.97;;;7.54;45.45
45991;BME280;31721;41.740;-88.000;2023-05-02T06:47:36;97427.61;;;7.63;45.54
45991;BME280;31721;41.740;-88.000;2023-05-02T06:50:05;97427.60;;;7.57;45.23
45991;BME280;31721;41.740;-88.000;2023-05-02T06:52:34;97427.35;;;7.31;45.39
45991;BME280;31721;41.740;-88.000;2023-05-02T06:55:01;97425.14;;;7.36;45.41
45991;BME280;31721;41.740;-88.000;2023-05-02T06:57:29;97425.30;;;7.24;45.32
45991;BME280;31721;41.740;-88.000;2023-05-02T06:59:56;97432.86;;;7.24;45.42
45991;BME280;31721;41.740;-88.000;2023-05-02T07:02:24;97430.20;;;7.03;45.50
45991;BME280;31721;41.740;-88.000;2023-05-02T07:04:52;97422.65;;;7.12;45.49
45991;BME280;31721;41.740;-88.000;2023-05-02T07:07:20;97425.72;;;7.24;45.44
45991;BME280;31721;41.740;-88.000;2023-05-02T07:09:48;97423.86;;;7.27;45.69
45991;BME280;31721;41.740;-88.000;2023-05-02T07:12:15;97427.36;;;7.12;45.79
45991;BME280;31721;41.740;-88.000;2023-05-02T07:14:43;97416.89;;;7.22;45.82
45991;BME280;31721;41.740;-88.000;2023-05-02T07:17:11;97418.17;;;7.12;45.69
45991;BME280;31721;41.740;-88.000;2023-05-02T07:19:39;97414.20;;;7.08;45.80
45991;BME280;31721;41.740;-88.000;2023-05-02T07:22:06;97418.42;;;7.18;45.91
45991;BME280;31721;41.740;-88.000;2023-05-02T07:24:34;97422.45;;;6.86;45.63
45991;BME280;31721;41.740;-88.000;2023-05-02T07:27:01;97408.34;;;7.01;45.66
45991;BME280;31721;41.740;-88.000;2023-05-02T07:29:29;97420.49;;;6.53;46.05
45991;BME280;31721;41.740;-88.000;2023-05-02T07:31:57;97414.37;;;6.87;45.98
45991;BME280;31721;41.740;-88.000;2023-05-02T07:34:24;97413.25;;;7.00;45.83
45991;BME280;31721;41.740;-88.000;2023-05-02T07:36:53;97407.48;;;6.73;46.04
45991;BME280;31721;41.740;-88.000;2023-05-02T07:39:21;97411.62;;;6.68;45.96
45991;BME280;31721;41.740;-88.000;2023-05-02T07:41:51;97418.71;;;6.19;46.07
45991;BME280;31721;41.740;-88.000;2023-05-02T07:44:19;97418.48;;;6.57;46.10
45991;BME280;31721;41.740;-88.000;2023-05-02T07:46:48;97416.59;;;6.65;45.89
45991;BME280;31721;41.740;-88.000;2023-05-02T07:49:21;97423.11;;;6.63;46.04
45991;BME280;31721;41.740;-88.000;2023-05-02T07:51:48;97419.88;;;6.63;45.82
45991;BME280;31721;41.740;-88.000;2023-05-02T07:54:16;97422.11;;;6.47;46.06
45991;BME280;31721;41.740;-88.000;2023-05-02T07:56:44;97424.59;;;6.33;46.10
45991;BME280;31721;41.740;-88.000;2023-05-02T07:59:13;97425.47;;;6.34;46.16
45991;BME280;31721;41.740;-88.000;2023-05-02T08:01:41;97427.28;;;6.52;46.38
45991;BME280;31721;41.740;-88.000;2023-05-02T08:04:09;97430.04;;;6.51;46.41
45991;BME280;31721;41.740;-88.000;2023-05-02T08:06:37;97435.49;;;6.24;46.88
45991;BME280;31721;41.740;-88.000;2023-05-02T08:09:05;97433.72;;;6.52;46.49
45991;BME280;31721;41.740;-88.000;2023-05-02T08:11:33;97446.15;;;6.20;46.46
45991;BME280;31721;41.740;-88.000;2023-05-02T08:14:01;97428.84;;;6.30;46.58
45991;BME280;31721;41.740;-88.000;2023-05-02T08:16:29;97445.36;;;5.71;46.65
45991;BME280;31721;41.740;-88.000;2023-05-02T08:18:57;97448.25;;;5.82;46.84
45991;BME280;31721;41.740;-88.000;2023-05-02T08:21:25;97446.63;;;6.20;46.60
45991;BME280;31721;41.740;-88.000;2023-05-02T08:23:57;97451.84;;;6.17;46.49
45991;BME280;31721;41.740;-88.000;2023-05-02T08:26:25;97450.97;;;5.96;46.67
45991;BME280;31721;41.740;-88.000;2023-05-02T08:28:54;97461.26;;;6.09;46.66
45991;BME280;31721;41.740;-88.000;2023-05-02T08:31:22;97460.83;;;6.04;46.74
45991;BME280;31721;41.740;-88.000;2023-05-02T08:33:49;97468.71;;;5.90;46.83
45991;BME280;31721;41.740;-88.000;2023-05-02T08:36:18;97468.00;;;6.01;46.69
45991;BME280;31721;41.740;-88.000;2023-05-02T08:38:46;97466.92;;;5.84;46.66
45991;BME280;31721;41.740;-88.000;2023-05-02T08:41:16;97467.20;;;5.93;46.75
45991;BME280;31721;41.740;-88.000;2023-05-02T08:43:45;97471.52;;;5.68;47.18
45991;BME280;31721;41.740;-88.000;2023-05-02T08:46:15;97471.79;;;5.87;47.00
45991;BME280;31721;41.740;-88.000;2023-05-02T08:48:44;97477.42;;;5.84;47.07
45991;BME280;31721;41.740;-88.000;2023-05-02T08:51:14;97479.47;;;5.84;46.68
45991;BME280;31721;41.740;-88.000;2023-05-02T08:53:43;97480.48;;;5.59;46.98
45991;BME280;31721;41.740;-88.000;2023-05-02T08:56:12;97475.95;;;5.80;47.15
45991;BME280;31721;41.740;-88.000;2023-05-02T08:58:40;97473.28;;;5.53;47.55
45991;BME280;31721;41.740;-88.000;2023-05-02T09:01:11;97483.03;;;5.68;47.21
45991;BME280;31721;41.740;-88.000;2023-05-02T09:03:40;97484.31;;;5.65;47.06
45991;BME280;31721;41.740;-88.000;2023-05-02T09:06:10;97489.79;;;5.59;47.03
45991;BME280;31721;41.740;-88.000;2023-05-02T09:08:39;97491.08;;;5.27;47.36
45991;BME280;31721;41.740;-88.000;2023-05-02T09:11:09;97490.09;;;5.38;47.28
45991;BME280;31721;41.740;-88.000;2023-05-02T09:13:38;97493.49;;;5.49;47.34
45991;BME280;31721;41.740;-88.000;2023-05-02T09:16:08;97493.06;;;5.40;47.17
45991;BME280;31721;41.740;-88.000;2023-05-02T09:18:37;97495.71;;;5.59;47.14
45991;BME280;31721;41.740;-88.000;2023-05-02T09:21:06;97495.97;;;5.76;47.16
45991;BME280;31721;41.740;-88.000;2023-05-02T09:23:38;97495.42;;;5.74;47.13
45991;BME280;31721;41.740;-88.000;2023-05-02T09:26:16;97494.27;;;5.77;47.20
45991;BME280;31721;41.740;-88.000;2023-05-02T09:28:45;97497.84;;;5.80;47.32
45991;BME280;31721;41.740;-88.000;2023-05-02T09:31:14;97501.68;;;5.53;47.82
45991;BME280;31721;41.740;-88.000;2023-05-02T09:33:43;97500.72;;;5.61;47.28
45991;BME280;31721;41.740;-88.000;2023-05-02T09:36:12;97501.82;;;5.65;47.35
45991;BME280;31721;41.740;-88.000;2023-05-02T09:38:40;97506.34;;;5.74;47.41
45991;BME280;31721;41.740;-88.000;2023-05-02T09:41:08;97504.32;;;5.68;47.38
45991;BME280;31721;41.740;-88.000;2023-05-02T09:43:37;97516.95;;;5.65;47.30
45991;BME280;31721;41.740;-88.000;2023-05-02T09:46:06;97519.09;;;5.65;47.19
45991;BME280;31721;41.740;-88.000;2023-05-02T09:48:51;97524.07;;;5.60;47.48
45991;BME280;31721;41.740;-88.000;2023-05-02T09:51:20;97525.59;;;5.43;47.37
45991;BME280;31721;41.740;-88.000;2023-05-02T09:53:48;97525.71;;;5.54;47.36
45991;BME280;31721;41.740;-88.000;2023-05-02T09:56:17;97529.71;;;5.54;47.15
45991;BME280;31721;41.740;-88.000;2023-05-02T09:58:44;97527.77;;;5.63;47.43
45991;BME280;31721;41.740;-88.000;2023-05-02T10:01:15;97527.35;;;5.44;47.47
45991;BME280;31721;41.740;-88.000;2023-05-02T10:03:46;97527.28;;;5.60;47.81
45991;BME280;31721;41.740;-88.000;2023-05-02T10:06:15;97527.85;;;5.40;47.78
45991;BME280;31721;41.740;-88.000;2023-05-02T10:08:43;97533.10;;;5.36;47.58
45991;BME280;31721;41.740;-88.000;2023-05-02T10:11:12;97533.98;;;5.17;47.60
45991;BME280;31721;41.740;-88.000;2023-05-02T10:13:42;97532.87;;;5.50;47.86
45991;BME280;31721;41.740;-88.000;2023-05-02T10:16:12;97533.82;;;5.30;47.44
45991;BME280;31721;41.740;-88.000;2023-05-02T10:18:50;97540.22;;;5.46;47.73
45991;BME280;31721;41.740;-88.000;2023-05-02T10:21:25;97541.31;;;5.64;47.91
45991;BME280;31721;41.740;-88.000;2023-05-02T10:23:54;97539.20;;;5.38;47.66
45991;BME280;31721;41.740;-88.000;2023-05-02T10:26:22;97542.96;;;5.59;47.52
45991;BME280;31721;41.740;-88.000;2023-05-02T10:28:50;97550.23;;;5.27;47.85
45991;BME280;31721;41.740;-88.000;2023-05-02T10:31:19;97544.08;;;5.60;47.79
45991;BME280;31721;41.740;-88.000;2023-05-02T10:33:50;97542.65;;;5.55;47.66
45991;BME280;31721;41.740;-88.000;2023-05-02T10:36:21;97549.19;;;5.55;48.00
45991;BME280;31721;41.740;-88.000;2023-05-02T10:38:49;97552.33;;;5.33;47.90
45991;BME280;31721;41.740;-88.000;2023-05-02T10:41:20;97554.50;;;5.55;47.82
45991;BME280;31721;41.740;-88.000;2023-05-02T10:43:49;97555.17;;;5.66;47.93
45991;BME280;31721;41.740;-88.000;2023-05-02T10:46:34;97552.30;;;5.49;47.62
45991;BME280;31721;41.740;-88.000;2023-05-02T10:49:04;97556.23;;;5.63;47.85
45991;BME280;31721;41.740;-88.000;2023-05-02T10:51:33;97560.34;;;5.61;47.57
45991;BME280;31721;41.740;-88.000;2023-05-02T10:54:34;97558.02;;;5.76;47.86
45991;BME280;31721;41.740;-88.000;2023-05-02T10:57:04;97558.30;;;5.60;47.94
45991;BME280;31721;41.740;-88.000;2023-05-02T10:59:34;97562.63;;;5.74;47.82
45991;BME280;31721;41.740;-88.000;2023-05-02T11:02:04;97562.59;;;5.76;47.84
45991;BME280;31721;41.740;-88.000;2023-05-02T11:05:05;97566.03;;;5.72;47.56
45991;BME280;31721;41.740;-88.000;2023-05-02T11:07:35;97566.20;;;5.72;47.73
45991;BME280;31721;41.740;-88.000;2023-05-02T11:10:36;97568.47;;;5.88;47.62
45991;BME280;31721;41.740;-88.000;2023-05-02T11:13:04;97576.61;;;5.80;48.29
45991;BME280;31721;41.740;-88.000;2023-05-02T11:16:04;97579.66;;;5.82;47.82
45991;BME280;31721;41.740;-88.000;2023-05-02T11:18:58;97583.53;;;5.77;48.02
45991;BME280;31721;41.740;-88.000;2023-05-02T11:21:27;97582.57;;;5.74;47.89
45991;BME280;31721;41.740;-88.000;2023-05-02T11:24:46;97585.05;;;5.69;48.10
45991;BME280;31721;41.740;-88.000;2023-05-02T11:27:47;97590.97;;;5.77;48.16
45991;BME280;31721;41.740;-88.000;2023-05-02T11:30:36;97594.48;;;5.76;48.06
45991;BME280;31721;41.740;-88.000;2023-05-02T11:33:13;97597.26;;;5.89;48.01
45991;BME280;31721;41.740;-88.000;2023-05-02T11:35:43;97593.54;;;5.81;48.26
45991;BME280;31721;41.740;-88.000;2023-05-02T11:38:13;97605.24;;;5.53;48.26
45991;BME280;31721;41.740;-88.000;2023-05-02T11:40:49;97595.06;;;5.91;48.03
45991;BME280;31721;41.740;-88.000;2023-05-02T11:43:18;97600.47;;;6.06;48.38
45991;BME280;31721;41.740;-88.000;2023-05-02T11:45:47;97607.40;;;6.07;48.03
45991;BME280;31721;41.740;-88.000;2023-05-02T11:48:17;97608.68;;;6.18;48.22
45991;BME280;31721;41.740;-88.000;2023-05-02T11:50:47;97614.05;;;6.08;48.07
45991;BME280;31721;41.740;-88.000;2023-05-02T11:53:17;97611.75;;;6.11;48.23
45991;BME280;31721;41.740;-88.000;2023-05-02T11:55:47;97615.08;;;6.35;48.25
45991;BME280;31721;41.740;-88.000;2023-05-02T11:58:16;97614.04;;;6.41;48.06
45991;BME280;31721;41.740;-88.000;2023-05-02T12:00:46;97617.63;;;6.38;47.72
45991;BME280;31721;41.740;-88.000;2023-05-02T12:03:26;97618.63;;;6.44;48.02
45991;BME280;31721;41.740;-88.000;2023-05-02T12:05:55;97617.09;;;6.54;48.10
45991;BME280;31721;41.740;-88.000;2023-05-02T12:08:26;97623.41;;;6.58;47.93
45991;BME280;31721;41.740;-88.000;2023-05-02T12:10:55;97623.33;;;6.34;47.63
45991;BME280;31721;41.740;-88.000;2023-05-02T12:13:25;97625.08;;;6.43;47.90
45991;BME280;31721;41.740;-88.000;2023-05-02T12:15:54;97622.46;;;6.39;47.74
45991;BME280;31721;41.740;-88.000;2023-05-02T12:18:23;97626.25;;;6.19;48.05
45991;BME280;31721;41.740;-88.000;2023-05-02T12:20:53;97624.15;;;6.28;48.02
45991;BME280;31721;41.740;-88.000;2023-05-02T12:23:23;97629.56;;;6.34;48.18
45991;BME280;31721;41.740;-88.000;2023-05-02T12:25:53;97631.22;;;6.77;47.77
45991;BME280;31721;41.740;-88.000;2023-05-02T12:28:21;97632.00;;;6.49;47.78
45991;BME280;31721;41.740;-88.000;2023-05-02T12:30:50;97635.68;;;6.51;47.90
45991;BME280;31721;41.740;-88.000;2023-05-02T12:33:18;97633.65;;;6.75;47.68
45991;BME280;31721;41.740;-88.000;2023-05-02T12:35:47;97632.53;;;6.53;47.90
45991;BME280;31721;41.740;-88.000;2023-05-02T12:38:16;97631.28;;;6.61;47.46
45991;BME280;31721;41.740;-88.000;2023-05-02T12:40:47;97631.90;;;6.70;47.70
45991;BME280;31721;41.740;-88.000;2023-05-02T12:43:16;97634.23;;;6.66;46.98
45991;BME280;31721;41.740;-88.000;2023-05-02T12:45:44;97625.77;;;6.66;47.25
45991;BME280;31721;41.740;-88.000;2023-05-02T12:48:22;97625.65;;;6.53;46.90
45991;BME280;31721;41.740;-88.000;2023-05-02T12:50:51;97626.65;;;6.85;47.26
45991;BME280;31721;41.740;-88.000;2023-05-02T12:53:45;97621.76;;;6.84;47.44
45991;BME280;31721;41.740;-88.000;2023-05-02T12:56:14;97632.00;;;6.82;47.12
45991;BME280;31721;41.740;-88.000;2023-05-02T12:58:44;97626.76;;;6.53;47.13
45991;BME280;31721;41.740;-88.000;2023-05-02T13:01:13;97631.86;;;6.79;47.13
45991;BME280;31721;41.740;-88.000;2023-05-02T13:03:42;97629.82;;;6.85;46.93
45991;BME280;31721;41.740;-88.000;2023-05-02T13:06:10;97624.70;;;6.81;46.87
45991;BME280;31721;41.740;-88.000;2023-05-02T13:08:39;97627.22;;;6.80;46.72